<?xml version="1.0" encoding="UTF-8" standalone="no" ?>
<gpx xmlns="http://www.topografix.com/GPX/1/1" xmlns:xsi="http://www.w3.org/2001/XMLSchema-instance" xsi:schemaLocation="http://www.topografix.com/GPX/1/1 http://www.topografix.com/GPX/1/1/gpx.xsd" version="1.1" creator="VisuGPX - https://www.visugpx.com">
  <metadata>
    <name>autre</name>
    <desc><![CDATA[Guillaume et Pierre]]></desc>
  </metadata>
  <trk>
    <name><![CDATA[ACTIVE LOG: 23 FEV 2014 13:13]]></name>
    <trkseg>
      <trkpt lat="45.77183" lon="4.84458">
        <ele>162.6</ele>
        <time>2014-02-23T12:13:07Z</time>
      </trkpt>
      <trkpt lat="45.77185" lon="4.84467">
        <ele>163.08</ele>
        <time>2014-02-23T12:14:12Z</time>
      </trkpt>
      <trkpt lat="45.77191" lon="4.8452">
        <ele>163.56</ele>
        <time>2014-02-23T12:14:34Z</time>
      </trkpt>
      <trkpt lat="45.7719" lon="4.84527">
        <ele>163.08</ele>
        <time>2014-02-23T12:14:40Z</time>
      </trkpt>
      <trkpt lat="45.77179" lon="4.84538">
        <ele>163.56</ele>
        <time>2014-02-23T12:14:48Z</time>
      </trkpt>
      <trkpt lat="45.77181" lon="4.84547">
        <ele>163.56</ele>
        <time>2014-02-23T12:14:54Z</time>
      </trkpt>
      <trkpt lat="45.77163" lon="4.84557">
        <ele>163.08</ele>
        <time>2014-02-23T12:15:03Z</time>
      </trkpt>
      <trkpt lat="45.7717" lon="4.84585">
        <ele>163.56</ele>
        <time>2014-02-23T12:15:17Z</time>
      </trkpt>
      <trkpt lat="45.77176" lon="4.84616">
        <ele>164.04</ele>
        <time>2014-02-23T12:15:31Z</time>
      </trkpt>
      <trkpt lat="45.7718" lon="4.84632">
        <ele>164.52</ele>
        <time>2014-02-23T12:15:46Z</time>
      </trkpt>
      <trkpt lat="45.77181" lon="4.84632">
        <ele>164.52</ele>
        <time>2014-02-23T12:16:07Z</time>
      </trkpt>
      <trkpt lat="45.7718" lon="4.84644">
        <ele>168.37</ele>
        <time>2014-02-23T12:16:21Z</time>
      </trkpt>
      <trkpt lat="45.77166" lon="4.84673">
        <ele>171.73</ele>
        <time>2014-02-23T12:16:31Z</time>
      </trkpt>
      <trkpt lat="45.77175" lon="4.8466">
        <ele>173.17</ele>
        <time>2014-02-23T12:16:35Z</time>
      </trkpt>
      <trkpt lat="45.77181" lon="4.84637">
        <ele>176.54</ele>
        <time>2014-02-23T12:16:46Z</time>
      </trkpt>
      <trkpt lat="45.77159" lon="4.84655">
        <ele>177.5</ele>
        <time>2014-02-23T12:17:01Z</time>
      </trkpt>
      <trkpt lat="45.77161" lon="4.84674">
        <ele>177.5</ele>
        <time>2014-02-23T12:17:16Z</time>
      </trkpt>
      <trkpt lat="45.77185" lon="4.84607">
        <ele>177.02</ele>
        <time>2014-02-23T12:17:28Z</time>
      </trkpt>
    </trkseg>
  </trk>
</gpx>